Terminal Aerodrome Forecast
Issued by NWS

Home | Current Version | Previous Version | Text Only | Print | Product List | Glossary On
Versions: 1 2 3 4 5 6 7 8 9 10 11 12 13 14
000
FTUS41 KCAR 181120
TAFPQI
TAF
KPQI 181120Z 1812/1912 34003KT P6SM SCT250
     FM181500 35004KT P6SM BKN050
     FM190200 VRB03KT P6SM BKN025
     FM190900 01005KT P6SM BKN050
      AMD LTD TO CLD VIS AND WIND=

USA.gov is the U.S. government's official web portal to all federal, state and local government web resources and services.